createdAt,value
2022-11-05T00:00:18.106Z,79.85
2022-11-05T00:03:03.466Z,79.33
2022-11-05T00:05:49.869Z,78.96
2022-11-05T00:08:35.338Z,77.10
2022-11-05T00:11:02.241Z,76.72
2022-11-05T00:13:47.804Z,77.29
2022-11-05T00:16:33.117Z,77.16
2022-11-05T00:19:10.139Z,75.80
2022-11-05T00:21:58.605Z,75.73
2022-11-05T00:24:44.196Z,76.53
2022-11-05T00:27:11.514Z,76.04
2022-11-05T00:29:38.376Z,76.34
2022-11-05T00:32:05.362Z,76.68
2022-11-05T00:34:32.277Z,76.40
2022-11-05T00:36:59.375Z,76.65
2022-11-05T00:39:26.394Z,76.12
2022-11-05T00:42:11.709Z,76.03
2022-11-05T00:44:57.098Z,76.35
2022-11-05T00:47:42.316Z,76.70
2022-11-05T00:50:10.825Z,77.23
2022-11-05T00:52:57.250Z,77.58
2022-11-05T00:55:35.353Z,78.69
2022-11-05T00:58:03.678Z,80.60
2022-11-05T01:00:32.203Z,81.32
2022-11-05T01:03:05.544Z,82.04
2022-11-05T01:05:34.202Z,82.46
2022-11-05T01:08:01.193Z,83.25
2022-11-05T01:10:28.497Z,83.24
2022-11-05T01:12:55.741Z,83.35
2022-11-05T01:15:22.997Z,82.64
2022-11-05T01:17:51.509Z,82.74
2022-11-05T01:20:18.390Z,83.07
2022-11-05T01:22:45.304Z,83.17
2022-11-05T01:25:12.224Z,83.13
2022-11-05T01:27:39.498Z,82.80
2022-11-05T01:30:08.457Z,82.41
2022-11-05T01:32:36.840Z,82.44
2022-11-05T01:35:09.313Z,82.97
2022-11-05T01:37:36.432Z,82.96
2022-11-05T01:40:04.763Z,83.08
2022-11-05T01:42:32.754Z,83.17
2022-11-05T01:45:16.427Z,82.87
2022-11-05T01:47:49.631Z,82.38
2022-11-05T01:50:28.278Z,81.96
2022-11-05T01:53:06.409Z,82.24
2022-11-05T01:55:37.928Z,82.17
2022-11-05T01:58:09.663Z,82.76
2022-11-05T02:00:36.768Z,82.97
2022-11-05T02:03:04.276Z,83.41
2022-11-05T02:05:32.641Z,84.01
2022-11-05T02:07:59.990Z,83.80
2022-11-05T02:10:27.935Z,84.53
2022-11-05T02:12:54.853Z,84.54
2022-11-05T02:15:59.332Z,84.43
2022-11-05T02:18:35.450Z,84.91
2022-11-05T02:21:11.488Z,84.77
2022-11-05T02:24:00.643Z,84.05
2022-11-05T02:27:05.098Z,83.52
2022-11-05T02:30:12.245Z,82.33
2022-11-05T02:32:41.794Z,81.44
2022-11-05T02:35:29.770Z,80.16
2022-11-05T02:38:09.568Z,80.00
2022-11-05T02:40:49.602Z,79.62
2022-11-05T02:43:29.447Z,78.97
2022-11-05T02:46:17.702Z,78.41
2022-11-05T02:49:17.866Z,78.51
2022-11-05T02:51:53.350Z,78.30
2022-11-05T02:54:35.405Z,78.12
2022-11-05T02:57:04.812Z,78.88
2022-11-05T02:59:31.725Z,78.02
2022-11-05T03:02:01.737Z,77.35
2022-11-05T03:04:30.169Z,77.58
2022-11-05T03:07:23.099Z,77.35
2022-11-05T03:09:55.967Z,76.36
2022-11-05T03:12:57.611Z,76.88
2022-11-05T03:15:44.531Z,77.89
2022-11-05T03:18:32.568Z,78.31
2022-11-05T03:21:14.776Z,78.81
2022-11-05T03:24:02.556Z,78.75
2022-11-05T03:26:33.645Z,80.06
2022-11-05T03:29:09.579Z,80.73
2022-11-05T03:31:39.465Z,82.36
2022-11-05T03:34:09.093Z,82.49
2022-11-05T03:36:41.823Z,82.24
2022-11-05T03:39:15.448Z,82.89
2022-11-05T03:41:46.184Z,83.45
2022-11-05T03:44:18.815Z,84.33
2022-11-05T03:46:49.457Z,85.01
2022-11-05T03:49:24.259Z,85.54
2022-11-05T03:52:16.767Z,85.73
2022-11-05T03:54:44.238Z,86.74
2022-11-05T03:57:17.965Z,87.37
2022-11-05T03:59:47.258Z,87.19
2022-11-05T04:02:16.710Z,86.92
2022-11-05T04:04:43.892Z,86.27
2022-11-05T04:07:30.809Z,84.53
2022-11-05T04:10:16.128Z,82.95
2022-11-05T04:13:01.515Z,81.22
2022-11-05T04:15:51.433Z,81.18
2022-11-05T04:18:18.304Z,81.37
2022-11-05T04:21:03.649Z,81.15
2022-11-05T04:23:49.105Z,81.08
2022-11-05T04:26:16.037Z,80.88
2022-11-05T04:29:06.776Z,81.20
2022-11-05T04:31:34.729Z,80.22
2022-11-05T04:34:01.679Z,79.46
2022-11-05T04:36:28.908Z,78.46
2022-11-05T04:38:56.081Z,78.25
2022-11-05T04:41:23.296Z,80.03
2022-11-05T04:43:50.144Z,80.67
2022-11-05T04:46:17.057Z,81.26
2022-11-05T04:48:44.013Z,81.42
2022-11-05T04:51:10.904Z,83.49
2022-11-05T04:53:37.748Z,86.11
2022-11-05T04:56:25.214Z,87.15
2022-11-05T04:58:52.470Z,87.11
2022-11-05T05:01:22.363Z,88.03
2022-11-05T05:03:51.169Z,87.27
2022-11-05T05:06:18.848Z,86.88
2022-11-05T05:08:50.395Z,85.92
2022-11-05T05:11:20.063Z,85.11
2022-11-05T05:13:47.680Z,83.77
2022-11-05T05:16:23.081Z,83.64
2022-11-05T05:18:50.371Z,83.91
2022-11-05T05:21:37.309Z,83.97
2022-11-05T05:24:05.952Z,83.59
2022-11-05T05:26:32.799Z,84.38
2022-11-05T05:28:59.633Z,83.69
2022-11-05T05:31:26.510Z,83.85
2022-11-05T05:33:54.728Z,84.81
2022-11-05T05:36:22.493Z,86.02
2022-11-05T05:38:49.822Z,86.91
2022-11-05T05:41:17.382Z,86.71
2022-11-05T05:43:44.320Z,87.42
2022-11-05T05:46:14.404Z,87.57
2022-11-05T05:48:42.016Z,87.41
2022-11-05T05:51:11.155Z,86.68
2022-11-05T05:53:38.651Z,86.89
2022-11-05T05:56:06.482Z,87.33
2022-11-05T05:58:38.976Z,86.62
2022-11-05T06:01:10.980Z,86.48
2022-11-05T06:03:41.180Z,86.75
2022-11-05T06:16:35.992Z,81.14
2022-11-05T06:19:03.147Z,80.33
2022-11-05T06:21:29.988Z,79.61
2022-11-05T06:23:56.829Z,79.92
2022-11-05T06:26:23.616Z,79.34
2022-11-05T06:28:50.570Z,78.46
2022-11-05T06:31:17.576Z,78.72
2022-11-05T06:33:44.592Z,78.02
2022-11-05T06:36:16.116Z,77.70
2022-11-05T06:38:43.066Z,76.79
2022-11-05T06:41:10.657Z,76.97
2022-11-05T06:43:38.750Z,76.18
2022-11-05T06:46:06.030Z,76.37
2022-11-05T06:48:33.081Z,75.98
2022-11-05T06:51:00.024Z,75.14
2022-11-05T06:53:27.819Z,74.50
2022-11-05T06:55:54.899Z,74.10
2022-11-05T06:58:21.774Z,73.43
2022-11-05T07:00:48.969Z,73.68
2022-11-05T07:03:16.089Z,73.38
2022-11-05T07:05:49.003Z,73.18
2022-11-05T07:08:16.100Z,71.98
2022-11-05T07:10:43.067Z,72.01
2022-11-05T07:13:10.310Z,71.31
2022-11-05T07:15:37.782Z,71.60
2022-11-05T07:18:07.497Z,71.90
2022-11-05T07:20:34.991Z,72.02
2022-11-05T07:23:06.663Z,71.51
2022-11-05T07:25:34.587Z,71.82
2022-11-05T07:28:02.483Z,71.59
2022-11-05T07:30:30.449Z,71.00
2022-11-05T07:32:57.605Z,70.89
2022-11-05T07:35:24.727Z,71.37
2022-11-05T07:37:56.515Z,72.00
2022-11-05T07:40:25.502Z,71.28
2022-11-05T07:43:00.181Z,70.81
2022-11-05T07:45:28.683Z,70.86
2022-11-05T07:48:00.861Z,72.67
2022-11-05T07:50:30.496Z,71.72
2022-11-05T07:53:11.962Z,70.31
2022-11-05T07:55:42.094Z,70.44
2022-11-05T07:58:09.828Z,69.46
2022-11-05T08:00:36.860Z,69.56
2022-11-05T08:03:10.781Z,69.44
2022-11-05T08:05:40.636Z,69.02
2022-11-05T08:08:08.821Z,69.27
2022-11-05T08:10:36.935Z,69.38
2022-11-05T08:13:04.507Z,68.77
2022-11-05T08:15:31.469Z,69.05
2022-11-05T08:17:59.662Z,69.24
2022-11-05T08:20:26.925Z,68.48
2022-11-05T08:22:54.743Z,68.90
2022-11-05T08:25:21.897Z,69.48
2022-11-05T08:27:55.564Z,70.08
2022-11-05T08:30:22.898Z,70.07
2022-11-05T08:32:49.956Z,70.04
2022-11-05T08:35:17.228Z,69.77
2022-11-05T08:37:44.105Z,69.09
2022-11-05T08:40:11.295Z,70.54
2022-11-05T08:42:38.993Z,69.61
2022-11-05T08:45:06.330Z,70.39
2022-11-05T08:47:33.257Z,70.56
2022-11-05T08:50:00.182Z,71.83
2022-11-05T08:52:27.057Z,72.18
2022-11-05T08:54:53.926Z,71.13
2022-11-05T08:57:20.811Z,70.04
2022-11-05T08:59:47.688Z,70.73
2022-11-05T09:02:14.668Z,69.77
2022-11-05T09:04:41.758Z,71.14
2022-11-05T09:07:08.977Z,71.14
2022-11-05T09:09:35.895Z,70.36
2022-11-05T09:12:12.214Z,69.56
2022-11-05T09:14:39.719Z,68.68
2022-11-05T09:17:18.336Z,68.69
2022-11-05T09:19:45.441Z,69.19
2022-11-05T09:22:13.040Z,70.04
2022-11-05T09:24:41.113Z,69.61
2022-11-05T09:27:13.251Z,70.42
2022-11-05T09:29:41.152Z,69.14
2022-11-05T09:32:09.219Z,68.13
2022-11-05T09:34:36.540Z,67.25
2022-11-05T09:44:07.920Z,65.33
2022-11-05T09:46:43.641Z,64.96
2022-11-05T09:49:26.068Z,63.67
2022-11-05T09:51:55.219Z,65.28
2022-11-05T09:54:26.427Z,65.45
2022-11-05T09:56:55.199Z,64.57
2022-11-05T09:59:27.725Z,64.00
2022-11-05T10:02:03.247Z,63.54
2022-11-05T10:04:34.335Z,63.31
2022-11-05T10:07:05.875Z,62.54
2022-11-05T10:09:38.123Z,62.84
2022-11-05T10:15:27.626Z,63.67
2022-11-05T10:18:00.105Z,63.03
2022-11-05T10:20:33.664Z,63.10
2022-11-05T10:23:21.489Z,62.80
2022-11-05T10:25:53.748Z,62.60
2022-11-05T10:28:24.357Z,62.03
2022-11-05T10:30:57.625Z,63.11
2022-11-05T10:33:52.025Z,62.60
2022-11-05T10:36:22.304Z,62.02
2022-11-05T10:38:50.312Z,61.69
2022-11-05T10:41:34.799Z,61.35
2022-11-05T10:44:27.086Z,60.32
2022-11-05T10:47:29.226Z,59.10
2022-11-05T10:50:00.680Z,60.31
2022-11-05T10:52:34.096Z,59.34
2022-11-05T10:55:05.195Z,59.17
2022-11-05T10:57:38.436Z,59.08
2022-11-05T11:00:17.105Z,59.54
2022-11-05T11:02:47.241Z,59.86
2022-11-05T11:05:27.285Z,59.20
2022-11-05T11:08:17.459Z,59.03
2022-11-05T11:10:54.566Z,58.67
2022-11-05T11:13:27.741Z,57.67
2022-11-05T11:15:55.692Z,58.91
2022-11-05T11:18:27.332Z,58.61
2022-11-05T11:21:04.335Z,58.05
2022-11-05T11:23:37.866Z,59.16
2022-11-05T11:26:05.679Z,58.11
2022-11-05T11:28:37.563Z,58.04
2022-11-05T11:31:14.221Z,57.20
2022-11-05T11:33:44.736Z,57.56
2022-11-05T11:36:12.962Z,57.32
2022-11-05T11:38:40.674Z,56.83
2022-11-05T11:41:30.903Z,56.74
2022-11-05T11:44:12.969Z,56.50
2022-11-05T11:46:40.727Z,56.60
2022-11-05T11:49:44.908Z,55.90
2022-11-05T11:52:18.733Z,55.24
2022-11-05T11:54:45.667Z,55.79
2022-11-05T11:57:25.019Z,55.05
2022-11-05T12:00:09.637Z,54.23
2022-11-05T12:02:43.010Z,54.69
2022-11-05T12:05:30.789Z,54.11
2022-11-05T12:08:42.869Z,54.24
2022-11-05T12:11:30.963Z,52.63
2022-11-05T12:14:13.085Z,51.88
2022-11-05T12:17:08.963Z,51.61
2022-11-05T12:19:49.436Z,50.94
2022-11-05T12:22:26.722Z,50.60
2022-11-05T12:25:14.880Z,49.91
2022-11-05T12:27:44.373Z,49.26
2022-11-05T12:30:17.583Z,48.50
2022-11-05T12:33:09.327Z,48.85
2022-11-05T12:35:57.725Z,49.08
2022-11-05T12:38:52.389Z,49.51
2022-11-05T12:41:28.711Z,49.09
2022-11-05T12:44:10.195Z,49.34
2022-11-05T12:46:45.157Z,49.78
2022-11-05T12:49:33.868Z,49.59
2022-11-05T12:52:18.926Z,50.00
2022-11-05T12:55:16.785Z,50.97
2022-11-05T12:57:47.158Z,51.41
2022-11-05T13:00:20.524Z,51.86
2022-11-05T13:03:18.352Z,51.31
2022-11-05T13:06:01.500Z,51.00
2022-11-05T13:08:45.008Z,50.33
2022-11-05T13:11:21.704Z,50.69
2022-11-05T13:14:11.606Z,50.04
2022-11-05T13:17:11.649Z,50.13
2022-11-05T13:19:50.789Z,50.50
2022-11-05T13:22:42.780Z,50.63
2022-11-05T13:39:45.035Z,51.86
2022-11-05T13:42:38.834Z,51.63
2022-11-05T13:45:43.326Z,51.80
2022-11-05T13:48:28.390Z,52.70
2022-11-05T13:51:16.951Z,54.40
2022-11-05T13:54:21.490Z,55.23
2022-11-05T13:56:53.941Z,54.97
2022-11-05T13:59:38.653Z,54.78
2022-11-05T14:02:25.430Z,55.17
2022-11-05T14:05:00.695Z,55.57
2022-11-05T14:07:35.270Z,55.41
2022-11-05T14:10:21.534Z,56.07
2022-11-05T14:12:51.761Z,56.24
2022-11-05T14:15:23.359Z,56.56
2022-11-05T14:18:00.794Z,56.69
2022-11-05T14:20:30.362Z,57.35
2022-11-05T14:23:28.385Z,57.09
2022-11-05T14:25:58.080Z,56.96
2022-11-05T14:28:46.793Z,57.29
2022-11-05T14:31:19.777Z,57.44
2022-11-05T14:34:12.370Z,57.35
2022-11-05T14:36:41.379Z,56.89
2022-11-05T14:39:17.069Z,57.74
2022-11-05T14:41:54.581Z,57.32
2022-11-05T14:44:22.520Z,58.29
2022-11-05T14:46:54.078Z,57.77
2022-11-05T14:49:28.085Z,58.33
2022-11-05T14:52:00.635Z,58.20
2022-11-05T14:54:30.683Z,58.65
2022-11-05T14:57:00.536Z,58.42
2022-11-05T14:59:28.316Z,58.76
2022-11-05T15:02:13.605Z,58.40
2022-11-05T15:04:42.797Z,58.94
2022-11-05T15:07:09.580Z,59.19
2022-11-05T15:09:58.271Z,59.77
2022-11-05T15:12:30.256Z,59.76
2022-11-05T15:15:22.065Z,59.55
2022-11-05T15:18:00.723Z,60.00
2022-11-05T15:20:39.623Z,59.77
2022-11-05T15:23:12.839Z,59.96
2022-11-05T15:26:01.472Z,59.60
2022-11-05T15:28:38.570Z,59.66
2022-11-05T15:31:06.802Z,59.68
2022-11-05T15:33:33.736Z,59.64
2022-11-05T15:36:18.837Z,60.25
2022-11-05T15:39:08.183Z,60.63
2022-11-05T15:41:34.531Z,60.65
2022-11-05T15:44:02.790Z,60.45
2022-11-05T15:46:30.181Z,60.30
2022-11-05T15:49:06.529Z,60.25
2022-11-05T15:51:33.943Z,60.82
2022-11-05T15:56:56.985Z,61.80
2022-11-05T15:59:25.714Z,61.85
2022-11-05T16:02:02.039Z,61.87
2022-11-05T16:04:31.934Z,62.02
2022-11-05T16:07:09.330Z,62.08
2022-11-05T16:09:40.374Z,62.19
2022-11-05T16:12:15.278Z,62.44
2022-11-05T16:14:42.585Z,62.36
2022-11-05T16:17:24.190Z,63.11
2022-11-05T16:19:52.168Z,63.23
2022-11-05T16:22:19.822Z,63.14
2022-11-05T16:24:47.428Z,63.55
2022-11-05T16:27:20.194Z,63.14
2022-11-05T16:29:48.557Z,63.67
2022-11-05T16:32:19.669Z,64.11
2022-11-05T16:34:53.607Z,64.35
2022-11-05T16:37:23.833Z,65.00
2022-11-05T16:39:51.745Z,64.80
2022-11-05T16:42:24.842Z,65.07
2022-11-05T16:44:55.271Z,64.89
2022-11-05T16:47:22.943Z,64.45
2022-11-05T16:49:50.591Z,64.75
2022-11-05T16:52:17.883Z,65.04
2022-11-05T16:54:44.880Z,65.83
2022-11-05T16:57:23.370Z,66.18
2022-11-05T16:59:50.385Z,65.63
2022-11-05T17:02:17.524Z,65.44
2022-11-05T17:04:44.564Z,65.40
2022-11-05T17:07:11.431Z,65.15
2022-11-05T17:09:38.295Z,64.79
2022-11-05T17:12:05.418Z,65.01
2022-11-05T17:14:32.322Z,65.47
2022-11-05T17:17:02.673Z,65.38
2022-11-05T17:19:29.564Z,65.55
2022-11-05T17:21:56.469Z,66.96
2022-11-05T17:24:23.342Z,66.62
2022-11-05T17:26:50.197Z,66.34
2022-11-05T17:29:17.113Z,66.48
2022-11-05T17:31:44.085Z,66.66
2022-11-05T17:34:11.052Z,66.97
2022-11-05T17:36:37.906Z,67.55
2022-11-05T17:39:04.864Z,66.94
2022-11-05T17:41:31.951Z,66.46
2022-11-05T17:43:59.036Z,66.50
2022-11-05T17:46:26.356Z,67.62
2022-11-05T17:48:53.244Z,67.81
2022-11-05T17:51:20.971Z,67.93
2022-11-05T17:53:49.388Z,68.65
2022-11-05T17:56:28.873Z,67.97
2022-11-05T17:59:01.235Z,67.36
2022-11-05T18:01:34.680Z,67.62
2022-11-05T18:04:08.303Z,68.04
2022-11-05T18:06:40.271Z,68.30
2022-11-05T18:09:08.880Z,68.54
2022-11-05T18:11:36.229Z,68.70
2022-11-05T18:14:03.916Z,67.95
2022-11-05T18:16:31.337Z,68.10
2022-11-05T18:18:58.285Z,69.17
2022-11-05T18:21:25.165Z,68.79
2022-11-05T18:23:52.095Z,68.01
2022-11-05T18:26:19.134Z,68.74
2022-11-05T18:28:46.193Z,68.64
2022-11-05T18:31:18.067Z,68.96
2022-11-05T18:33:45.607Z,68.86
2022-11-05T18:36:18.724Z,68.90
2022-11-05T18:38:47.714Z,68.83
2022-11-05T18:41:15.445Z,69.41
2022-11-05T18:43:42.313Z,68.74
2022-11-05T18:46:23.863Z,68.62
2022-11-05T18:48:58.056Z,68.14
2022-11-05T18:51:25.972Z,67.88
2022-11-05T18:53:54.499Z,68.18
2022-11-05T18:56:22.151Z,67.83
2022-11-05T18:58:49.810Z,68.08
2022-11-05T19:01:23.666Z,68.04
2022-11-05T19:03:58.051Z,68.63
2022-11-05T19:06:25.635Z,69.80
2022-11-05T19:08:52.977Z,69.48
2022-11-05T19:11:22.444Z,69.33
2022-11-05T19:13:49.355Z,69.39
2022-11-05T19:16:27.617Z,69.36
2022-11-05T19:18:57.598Z,69.00
2022-11-05T19:21:26.022Z,68.37
2022-11-05T19:23:53.316Z,67.90
2022-11-05T19:26:28.184Z,69.07
2022-11-05T19:28:58.198Z,69.66
2022-11-05T19:31:25.925Z,69.43
2022-11-05T19:33:53.479Z,69.27
2022-11-05T19:36:21.668Z,69.69
2022-11-05T19:38:53.582Z,69.38
2022-11-05T19:41:21.565Z,70.05
2022-11-05T19:43:48.391Z,70.19
2022-11-05T19:46:17.897Z,70.63
2022-11-05T19:48:45.616Z,71.60
2022-11-05T19:51:24.124Z,71.53
2022-11-05T19:53:52.883Z,71.88
2022-11-05T19:56:24.935Z,71.80
2022-11-05T19:58:53.257Z,72.10
2022-11-05T20:01:22.004Z,71.19
2022-11-05T20:03:49.871Z,71.00
2022-11-05T20:06:32.184Z,70.79
2022-11-05T20:11:50.069Z,69.38
2022-11-05T20:14:17.340Z,69.08
2022-11-05T20:16:45.888Z,68.53
2022-11-05T20:19:17.837Z,68.64
2022-11-05T20:21:45.467Z,68.51
2022-11-05T20:24:17.474Z,68.43
2022-11-05T20:26:50.353Z,68.26
2022-11-05T20:29:17.292Z,68.29
2022-11-05T20:31:44.128Z,69.41
2022-11-05T20:34:10.996Z,69.07
2022-11-05T20:36:38.825Z,69.01
2022-11-05T20:39:05.909Z,69.30
2022-11-05T20:41:33.267Z,69.65
2022-11-05T20:44:00.218Z,69.67
2022-11-05T20:46:27.462Z,69.57
2022-11-05T20:48:54.720Z,69.27
2022-11-05T20:51:24.358Z,69.20
2022-11-05T20:53:59.255Z,68.64
2022-11-05T20:56:29.417Z,68.51
2022-11-05T20:58:58.464Z,69.04
2022-11-05T21:01:27.671Z,69.24
2022-11-05T21:03:54.982Z,69.32
2022-11-05T21:06:22.688Z,69.80
2022-11-05T21:08:51.338Z,70.02
2022-11-05T21:11:19.590Z,70.25
2022-11-05T21:13:47.176Z,70.14
2022-11-05T21:16:18.447Z,70.56
2022-11-05T21:18:46.520Z,70.81
2022-11-05T21:21:16.316Z,70.75
2022-11-05T21:23:43.327Z,71.04
2022-11-05T21:26:13.261Z,71.20
2022-11-05T21:28:41.033Z,71.47
2022-11-05T21:31:19.569Z,71.96
2022-11-05T21:33:50.915Z,71.71
2022-11-05T21:36:20.920Z,71.53
2022-11-05T21:38:47.907Z,72.19
2022-11-05T21:43:42.421Z,72.11
2022-11-05T21:46:12.074Z,72.35
2022-11-05T21:48:39.333Z,71.78
2022-11-05T21:51:24.860Z,71.63
2022-11-05T21:54:10.242Z,72.09
2022-11-05T21:56:56.150Z,72.08
2022-11-05T21:59:43.037Z,72.24
2022-11-05T22:02:12.336Z,73.02
2022-11-05T22:04:41.768Z,72.49
2022-11-05T22:07:11.089Z,72.30
2022-11-05T22:09:38.188Z,71.96
2022-11-05T22:12:05.972Z,72.84
2022-11-05T22:14:32.983Z,73.72
2022-11-05T22:17:00.166Z,74.26
2022-11-05T22:19:27.263Z,74.88
2022-11-05T22:21:54.152Z,75.26
2022-11-05T22:24:21.389Z,76.20
2022-11-05T22:26:49.223Z,76.29
2022-11-05T22:29:16.948Z,76.72
2022-11-05T22:31:44.446Z,76.29
2022-11-05T22:34:12.127Z,76.94
2022-11-05T22:36:39.073Z,76.93
2022-11-05T22:39:06.186Z,77.44
2022-11-05T22:41:33.768Z,77.57
2022-11-05T22:44:00.981Z,78.46
2022-11-05T22:46:27.864Z,78.63
2022-11-05T22:48:56.242Z,79.33
2022-11-05T22:51:25.959Z,79.14
2022-11-05T22:53:54.754Z,78.86
2022-11-05T22:56:24.386Z,78.51
2022-11-05T22:58:51.661Z,77.71
2022-11-05T23:01:19.503Z,77.56
2022-11-05T23:03:48.167Z,77.95
2022-11-05T23:06:39.082Z,77.85
2022-11-05T23:09:30.631Z,78.51
2022-11-05T23:11:57.498Z,78.92
2022-11-05T23:14:24.767Z,78.81
2022-11-05T23:17:10.159Z,78.01
2022-11-05T23:19:56.217Z,78.29
2022-11-05T23:22:45.168Z,78.07
2022-11-05T23:25:18.881Z,77.67
2022-11-05T23:27:48.561Z,77.34
2022-11-05T23:30:21.323Z,76.10
2022-11-05T23:32:48.562Z,76.63
2022-11-05T23:35:16.143Z,77.93
2022-11-05T23:38:02.022Z,77.89
2022-11-05T23:40:51.555Z,77.48
2022-11-05T23:43:37.100Z,77.45
2022-11-05T23:46:22.420Z,76.69
2022-11-05T23:48:50.695Z,76.06
2022-11-05T23:51:17.926Z,75.66
2022-11-05T23:53:44.916Z,76.07
2022-11-05T23:56:14.634Z,75.66
2022-11-05T23:58:42.696Z,75.81
